createdAt,value
2022-12-23T00:01:14.649Z,46.30
2022-12-23T00:03:47.413Z,43.50
2022-12-23T00:06:17.959Z,39.10
2022-12-23T00:08:46.946Z,40.90
2022-12-23T00:11:20.910Z,41.30
2022-12-23T00:14:08.224Z,42.10
2022-12-23T00:16:37.563Z,39.50
2022-12-23T00:19:06.175Z,40.60
2022-12-23T00:21:36.651Z,41.20
2022-12-23T00:24:07.926Z,39.40
2022-12-23T00:26:37.087Z,41.70
2022-12-23T00:29:06.655Z,40.60
2022-12-23T00:31:36.660Z,41.40
2022-12-23T00:34:04.821Z,41.60
2022-12-23T00:36:33.051Z,39.10
2022-12-23T00:39:20.262Z,39.70
2022-12-23T00:42:07.071Z,39.70
2022-12-23T00:44:36.392Z,40.70
2022-12-23T00:47:04.887Z,42.40
2022-12-23T00:49:45.067Z,40.50
2022-12-23T00:52:18.764Z,41.40
2022-12-23T00:54:48.079Z,40.50
2022-12-23T00:57:16.297Z,40.20
2022-12-23T00:59:44.552Z,39.40
2022-12-23T01:02:31.614Z,38.50
2022-12-23T01:05:18.737Z,37.80
2022-12-23T01:07:46.925Z,38.00
2022-12-23T01:10:15.232Z,36.50
2022-12-23T01:12:43.369Z,40.30
2022-12-23T01:15:11.503Z,39.80
2022-12-23T01:17:39.650Z,39.70
2022-12-23T01:20:08.910Z,35.60
2022-12-23T01:22:37.280Z,39.00
2022-12-23T01:25:06.206Z,37.60
2022-12-23T01:27:34.454Z,39.50
2022-12-23T01:30:03.446Z,38.70
2022-12-23T01:32:32.062Z,41.10
2022-12-23T01:35:02.650Z,41.20
2022-12-23T01:37:30.949Z,39.60
2022-12-23T01:39:59.102Z,40.10
2022-12-23T01:42:45.333Z,42.30
2022-12-23T01:45:20.239Z,39.00
2022-12-23T01:48:16.858Z,41.50
2022-12-23T01:51:05.152Z,39.20
2022-12-23T01:53:43.473Z,41.00
2022-12-23T01:56:18.801Z,43.10
2022-12-23T01:58:59.495Z,42.50
2022-12-23T02:01:48.496Z,43.80
2022-12-23T02:04:23.139Z,45.60
2022-12-23T02:07:10.568Z,42.30
2022-12-23T02:09:40.587Z,41.90
2022-12-23T02:12:14.844Z,43.00
2022-12-23T02:15:17.521Z,40.50
2022-12-23T02:18:26.462Z,44.40
2022-12-23T02:21:38.651Z,45.50
2022-12-23T02:24:31.485Z,42.90
2022-12-23T02:27:30.359Z,40.70
2022-12-23T02:30:39.177Z,39.90
2022-12-23T02:33:30.124Z,45.70
2022-12-23T02:36:17.834Z,41.30
2022-12-23T02:39:05.168Z,39.80
2022-12-23T02:41:53.837Z,44.50
2022-12-23T02:44:35.547Z,44.40
2022-12-23T02:47:26.162Z,45.10
2022-12-23T02:50:06.286Z,45.40
2022-12-23T02:52:38.009Z,46.30
2022-12-23T02:55:17.746Z,45.60
2022-12-23T02:57:51.142Z,44.00
2022-12-23T03:00:19.933Z,44.60
2022-12-23T03:02:48.870Z,41.20
2022-12-23T03:05:29.035Z,41.50
2022-12-23T03:08:03.048Z,42.60
2022-12-23T03:11:03.207Z,42.90
2022-12-23T03:13:46.665Z,41.70
2022-12-23T03:16:29.006Z,39.00
2022-12-23T03:19:28.106Z,36.40
2022-12-23T03:22:15.067Z,40.80
2022-12-23T03:25:02.071Z,40.20
2022-12-23T03:27:46.770Z,39.40
2022-12-23T03:30:19.689Z,39.80
2022-12-23T03:33:19.653Z,40.10
2022-12-23T03:35:56.753Z,40.20
2022-12-23T03:38:26.787Z,40.10
2022-12-23T03:41:00.936Z,40.60
2022-12-23T03:43:37.029Z,39.10
2022-12-23T03:46:14.892Z,39.20
2022-12-23T03:48:53.169Z,39.20
2022-12-23T03:51:29.425Z,40.60
2022-12-23T03:54:10.145Z,41.60
2022-12-23T03:56:50.018Z,43.00
2022-12-23T03:59:24.413Z,39.10
2022-12-23T04:02:18.397Z,34.40
2022-12-23T04:04:54.317Z,37.30
2022-12-23T04:07:46.315Z,38.80
2022-12-23T04:10:14.933Z,38.30
2022-12-23T04:12:44.586Z,37.70
2022-12-23T04:15:13.561Z,37.40
2022-12-23T04:17:41.966Z,40.00
2022-12-23T04:20:11.099Z,40.40
2022-12-23T04:22:39.770Z,40.70
2022-12-23T04:25:08.686Z,40.70
2022-12-23T04:27:37.176Z,41.60
2022-12-23T04:30:09.367Z,39.30
2022-12-23T04:32:38.265Z,40.80
2022-12-23T04:35:07.273Z,40.30
2022-12-23T04:37:35.655Z,41.20
2022-12-23T04:40:06.206Z,40.00
2022-12-23T04:42:35.066Z,42.50
2022-12-23T04:45:03.855Z,38.50
2022-12-23T04:47:32.185Z,40.70
2022-12-23T04:50:00.367Z,39.80
2022-12-23T04:52:28.649Z,40.70
2022-12-23T04:54:56.772Z,40.90
2022-12-23T04:57:25.013Z,39.50
2022-12-23T04:59:53.165Z,41.50
2022-12-23T05:02:21.449Z,40.10
2022-12-23T05:04:49.815Z,39.90
2022-12-23T05:07:18.130Z,39.40
2022-12-23T05:09:46.471Z,39.40
2022-12-23T05:12:14.668Z,40.80
2022-12-23T05:14:42.999Z,42.60
2022-12-23T05:17:12.521Z,39.00
2022-12-23T05:19:40.597Z,40.20
2022-12-23T05:22:09.966Z,39.40
2022-12-23T05:24:38.878Z,40.50
2022-12-23T05:27:07.142Z,41.40
2022-12-23T05:29:35.453Z,39.20
2022-12-23T05:32:05.620Z,40.90
2022-12-23T05:34:34.198Z,40.20
2022-12-23T05:37:02.384Z,38.30
2022-12-23T05:39:30.959Z,38.40
2022-12-23T05:41:59.167Z,41.50
2022-12-23T05:44:27.328Z,39.60
2022-12-23T05:46:55.468Z,38.90
2022-12-23T05:49:25.425Z,39.60
2022-12-23T05:51:53.642Z,38.70
2022-12-23T05:54:21.818Z,40.50
2022-12-23T05:56:49.981Z,41.20
2022-12-23T05:59:18.097Z,39.00
2022-12-23T06:01:46.391Z,41.00
2022-12-23T06:04:14.803Z,43.80
2022-12-23T06:06:43.142Z,41.10
2022-12-23T06:09:11.395Z,43.40
2022-12-23T06:11:39.529Z,41.70
2022-12-23T06:14:07.660Z,41.30
2022-12-23T06:16:36.064Z,42.20
2022-12-23T06:19:04.573Z,42.70
2022-12-23T06:21:33.217Z,40.30
2022-12-23T06:24:01.426Z,43.40
2022-12-23T06:26:31.504Z,40.50
2022-12-23T06:29:00.134Z,42.70
2022-12-23T06:31:28.303Z,42.90
2022-12-23T06:33:56.538Z,39.10
2022-12-23T06:36:25.101Z,40.30
2022-12-23T06:38:53.614Z,43.60
2022-12-23T06:41:21.881Z,43.50
2022-12-23T06:43:54.600Z,41.70
2022-12-23T06:46:23.227Z,40.80
2022-12-23T06:48:54.798Z,43.20
2022-12-23T06:51:23.562Z,42.90
2022-12-23T06:53:52.253Z,42.80
2022-12-23T06:56:20.782Z,41.20
2022-12-23T06:58:48.939Z,40.90
2022-12-23T07:01:17.109Z,41.50
2022-12-23T07:03:45.735Z,45.30
2022-12-23T07:06:14.151Z,41.80
2022-12-23T07:08:42.255Z,43.40
2022-12-23T07:11:10.676Z,44.40
2022-12-23T07:13:41.723Z,42.80
2022-12-23T07:16:09.994Z,41.70
2022-12-23T07:18:38.171Z,42.70
2022-12-23T07:21:10.594Z,41.90
2022-12-23T07:23:46.816Z,41.70
2022-12-23T07:26:15.861Z,40.90
2022-12-23T07:28:47.919Z,40.90
2022-12-23T07:31:16.545Z,37.50
2022-12-23T07:33:44.836Z,38.70
2022-12-23T07:36:13.353Z,41.40
2022-12-23T07:38:41.636Z,42.90
2022-12-23T07:41:09.757Z,42.50
2022-12-23T07:43:38.017Z,42.50
2022-12-23T07:46:08.832Z,35.30
2022-12-23T07:48:37.083Z,40.50
2022-12-23T07:51:05.612Z,39.50
2022-12-23T07:53:33.974Z,44.40
2022-12-23T07:56:02.205Z,43.80
2022-12-23T07:58:30.323Z,42.00
2022-12-23T08:01:10.142Z,42.00
2022-12-23T08:03:38.397Z,45.00
2022-12-23T08:06:14.442Z,43.50
2022-12-23T08:08:45.907Z,43.70
2022-12-23T08:11:15.787Z,45.30
2022-12-23T08:13:45.994Z,44.50
2022-12-23T08:16:14.450Z,45.70
2022-12-23T08:18:42.761Z,43.80
2022-12-23T08:21:19.223Z,43.50
2022-12-23T08:23:48.809Z,43.40
2022-12-23T08:26:21.340Z,38.00
2022-12-23T08:28:53.480Z,46.50
2022-12-23T08:31:26.224Z,43.60
2022-12-23T08:33:57.103Z,46.60
2022-12-23T08:36:32.518Z,42.50
2022-12-23T08:39:05.678Z,38.90
2022-12-23T08:41:39.104Z,45.60
2022-12-23T08:44:08.946Z,43.10
2022-12-23T08:46:37.570Z,47.50
2022-12-23T08:49:07.430Z,48.30
2022-12-23T08:51:37.346Z,39.70
2022-12-23T08:54:06.647Z,43.90
2022-12-23T08:56:40.170Z,45.20
2022-12-23T08:59:19.134Z,43.80
2022-12-23T09:01:48.626Z,47.50
2022-12-23T09:04:17.148Z,43.30
2022-12-23T09:06:45.756Z,44.90
2022-12-23T09:09:15.926Z,45.20
2022-12-23T09:11:44.339Z,40.30
2022-12-23T09:14:12.960Z,45.60
2022-12-23T09:16:41.343Z,42.40
2022-12-23T09:19:09.552Z,38.90
2022-12-23T09:21:37.780Z,39.90
2022-12-23T09:24:06.682Z,36.90
2022-12-23T09:26:34.977Z,43.30
2022-12-23T09:29:03.463Z,39.30
2022-12-23T09:31:36.777Z,40.80
2022-12-23T09:34:06.802Z,37.30
2022-12-23T09:36:35.059Z,43.40
2022-12-23T09:39:03.955Z,39.60
2022-12-23T09:41:54.917Z,44.60
2022-12-23T09:44:55.318Z,47.70
2022-12-23T09:47:26.747Z,46.50
2022-12-23T09:50:29.746Z,46.80
2022-12-23T09:56:16.070Z,34.30
2022-12-23T09:59:17.421Z,43.80
2022-12-23T10:02:00.448Z,45.30
2022-12-23T10:05:03.010Z,39.90
2022-12-23T10:07:48.524Z,41.50
2022-12-23T10:10:22.675Z,43.00
2022-12-23T10:12:53.984Z,43.80
2022-12-23T10:15:35.037Z,42.00
2022-12-23T10:18:20.579Z,41.70
2022-12-23T10:20:57.842Z,44.20
2022-12-23T10:23:42.754Z,43.30
2022-12-23T10:26:34.510Z,44.80
2022-12-23T10:29:19.424Z,46.20
2022-12-23T10:32:06.482Z,41.90
2022-12-23T10:34:59.966Z,43.70
2022-12-23T10:37:53.887Z,39.50
2022-12-23T10:40:53.016Z,40.60
2022-12-23T10:43:30.209Z,39.10
2022-12-23T10:46:26.707Z,35.90
2022-12-23T10:49:18.667Z,42.00
2022-12-23T10:51:57.618Z,40.10
2022-12-23T10:54:35.052Z,38.40
2022-12-23T10:57:07.262Z,39.60
2022-12-23T10:59:37.580Z,44.20
2022-12-23T11:02:11.920Z,38.90
2022-12-23T11:04:50.715Z,38.90
2022-12-23T11:07:44.759Z,39.20
2022-12-23T11:10:25.779Z,40.20
2022-12-23T11:12:55.005Z,35.30
2022-12-23T11:15:38.652Z,38.40
2022-12-23T11:18:12.844Z,38.10
2022-12-23T11:20:49.395Z,37.20
2022-12-23T11:23:35.890Z,34.40
2022-12-23T11:26:10.061Z,37.60
2022-12-23T11:28:48.434Z,37.20
2022-12-23T11:31:28.177Z,36.10
2022-12-23T11:34:01.253Z,31.00
2022-12-23T11:36:31.516Z,33.10
2022-12-23T11:39:22.926Z,35.10
2022-12-23T11:42:02.970Z,36.90
2022-12-23T11:44:39.363Z,34.20
2022-12-23T11:47:23.670Z,38.90
2022-12-23T11:49:57.467Z,38.80
2022-12-23T11:52:29.082Z,35.70
2022-12-23T11:55:03.005Z,38.60
2022-12-23T11:57:48.504Z,34.10
2022-12-23T12:00:34.943Z,34.00
2022-12-23T12:03:06.248Z,33.70
2022-12-23T12:05:47.641Z,31.00
2022-12-23T12:08:22.618Z,35.70
2022-12-23T12:10:53.368Z,33.30
2022-12-23T12:13:36.604Z,36.70
2022-12-23T12:16:30.656Z,33.00
2022-12-23T12:19:07.623Z,34.10
2022-12-23T12:21:39.104Z,33.70
2022-12-23T12:24:39.005Z,36.70
2022-12-23T12:27:10.389Z,31.20
2022-12-23T12:30:01.078Z,33.20
2022-12-23T12:33:05.373Z,31.80
2022-12-23T12:36:07.173Z,33.40
2022-12-23T12:38:48.960Z,36.00
2022-12-23T12:41:29.428Z,35.80
2022-12-23T12:44:07.803Z,34.50
2022-12-23T12:46:47.748Z,34.90
2022-12-23T12:49:38.622Z,31.60
2022-12-23T12:52:20.703Z,32.60
2022-12-23T12:55:28.475Z,33.70
2022-12-23T12:57:56.720Z,34.70
2022-12-23T13:00:25.420Z,35.10
2022-12-23T13:03:47.553Z,37.10
2022-12-23T13:06:56.819Z,32.00
2022-12-23T13:09:57.374Z,35.70
2022-12-23T13:13:07.798Z,32.00
2022-12-23T13:15:46.719Z,32.50
2022-12-23T13:18:43.765Z,34.10
2022-12-23T13:21:38.776Z,32.40
2022-12-23T13:24:22.338Z,32.30
2022-12-23T13:27:17.691Z,33.20
2022-12-23T13:30:07.002Z,31.50
2022-12-23T13:32:56.270Z,32.20
2022-12-23T13:36:02.927Z,35.60
2022-12-23T13:39:01.110Z,34.00
2022-12-23T13:41:48.567Z,35.90
2022-12-23T13:44:18.797Z,32.40
2022-12-23T13:47:25.009Z,35.20
2022-12-23T13:50:09.564Z,33.40
2022-12-23T13:53:24.888Z,33.50
2022-12-23T13:56:24.243Z,34.20
2022-12-23T13:58:53.114Z,32.20
2022-12-23T14:01:41.576Z,34.00
2022-12-23T14:04:59.229Z,36.20
2022-12-23T14:07:30.819Z,34.70
2022-12-23T14:10:19.992Z,35.00
2022-12-23T14:12:58.388Z,35.00
2022-12-23T14:16:04.682Z,35.40
2022-12-23T14:19:21.102Z,35.20
2022-12-23T14:22:36.187Z,35.70
2022-12-23T14:25:39.681Z,36.30
2022-12-23T14:28:43.530Z,36.60
2022-12-23T14:31:55.382Z,35.10
2022-12-23T14:34:33.764Z,34.00
2022-12-23T14:37:44.549Z,37.60
2022-12-23T14:40:37.432Z,35.90
2022-12-23T14:43:45.937Z,36.40
2022-12-23T14:46:35.929Z,34.50
2022-12-23T14:49:38.425Z,34.00
2022-12-23T14:52:39.360Z,36.10
2022-12-23T14:55:32.826Z,34.00
2022-12-23T14:58:10.764Z,35.80
2022-12-23T15:00:57.177Z,34.40
2022-12-23T15:03:42.341Z,32.30
2022-12-23T15:06:32.235Z,34.60
2022-12-23T15:09:01.881Z,34.70
2022-12-23T15:11:34.016Z,35.90
2022-12-23T15:14:11.636Z,35.30
2022-12-23T15:16:40.527Z,35.20
2022-12-23T15:19:22.843Z,37.60
2022-12-23T15:22:15.364Z,36.00
2022-12-23T15:24:49.272Z,35.80
2022-12-23T15:27:29.734Z,36.50
2022-12-23T15:29:58.754Z,36.60
2022-12-23T15:32:29.292Z,36.80
2022-12-23T15:35:06.187Z,36.20
2022-12-23T15:37:35.156Z,37.20
2022-12-23T15:40:12.195Z,38.10
2022-12-23T15:42:48.965Z,36.70
2022-12-23T15:45:23.139Z,35.40
2022-12-23T15:47:51.418Z,34.10
2022-12-23T15:50:21.030Z,34.70
2022-12-23T15:52:50.956Z,36.10
2022-12-23T15:55:32.243Z,37.00
2022-12-23T15:58:02.676Z,34.50
2022-12-23T16:00:49.403Z,37.60
2022-12-23T16:03:34.598Z,37.20
2022-12-23T16:06:25.446Z,37.80
2022-12-23T16:09:06.930Z,35.60
2022-12-23T16:11:54.727Z,40.90
2022-12-23T16:14:41.997Z,43.30
2022-12-23T16:17:16.184Z,44.10
2022-12-23T16:19:50.150Z,40.80
2022-12-23T16:22:31.211Z,42.90
2022-12-23T16:25:05.135Z,41.10
2022-12-23T16:27:58.262Z,36.00
2022-12-23T16:30:33.637Z,39.70
2022-12-23T16:33:22.496Z,42.10
2022-12-23T16:35:53.573Z,40.60
2022-12-23T16:38:26.627Z,40.80
2022-12-23T16:40:56.997Z,41.10
2022-12-23T16:43:26.174Z,40.60
2022-12-23T16:45:57.511Z,40.40
2022-12-23T16:48:33.147Z,42.60
2022-12-23T16:51:05.865Z,43.70
2022-12-23T16:53:34.940Z,41.50
2022-12-23T16:56:09.896Z,39.10
2022-12-23T16:58:38.267Z,36.70
2022-12-23T17:01:06.637Z,38.80
2022-12-23T17:03:34.975Z,37.80
2022-12-23T17:06:03.180Z,38.70
2022-12-23T17:08:31.354Z,37.10
2022-12-23T17:10:59.514Z,39.90
2022-12-23T17:13:27.670Z,41.40
2022-12-23T17:15:55.782Z,34.30
2022-12-23T17:18:23.915Z,39.00
2022-12-23T17:20:52.132Z,41.30
2022-12-23T17:23:32.569Z,41.40
2022-12-23T17:26:00.787Z,41.10
2022-12-23T17:28:32.647Z,40.70
2022-12-23T17:31:01.086Z,41.10
2022-12-23T17:33:32.367Z,40.60
2022-12-23T17:36:00.576Z,39.40
2022-12-23T17:38:31.836Z,40.70
2022-12-23T17:40:59.956Z,38.10
2022-12-23T17:43:28.155Z,37.10
2022-12-23T17:45:56.464Z,41.40
2022-12-23T17:48:31.082Z,40.50
2022-12-23T17:50:59.778Z,37.90
2022-12-23T17:53:27.978Z,38.60
2022-12-23T17:55:56.095Z,36.10
2022-12-23T17:58:24.289Z,36.40
2022-12-23T18:00:52.416Z,35.60
2022-12-23T18:03:23.674Z,37.10
2022-12-23T18:06:00.883Z,38.40
2022-12-23T18:08:29.669Z,39.20
2022-12-23T18:10:59.440Z,37.60
2022-12-23T18:13:27.620Z,34.00
2022-12-23T18:15:55.805Z,36.50
2022-12-23T18:18:32.103Z,37.70
2022-12-23T18:21:05.542Z,38.00
2022-12-23T18:23:34.618Z,36.60
2022-12-23T18:26:03.117Z,36.30
2022-12-23T18:28:31.243Z,35.00
2022-12-23T18:30:59.616Z,35.90
2022-12-23T18:33:29.583Z,39.20
2022-12-23T18:35:57.948Z,37.70
2022-12-23T18:38:26.120Z,40.40
2022-12-23T18:40:56.703Z,42.00
2022-12-23T18:43:25.770Z,39.30
2022-12-23T18:45:54.459Z,38.00
2022-12-23T18:48:22.768Z,38.00
2022-12-23T18:50:50.886Z,36.80
2022-12-23T18:53:25.110Z,37.00
2022-12-23T18:55:54.944Z,35.50
2022-12-23T18:58:23.396Z,34.50
2022-12-23T19:00:55.367Z,35.90
2022-12-23T19:03:31.700Z,33.80
2022-12-23T19:06:06.750Z,36.90
2022-12-23T19:08:37.023Z,38.10
2022-12-23T19:11:18.621Z,39.10
2022-12-23T19:13:47.951Z,38.30
2022-12-23T19:16:19.570Z,37.90
2022-12-23T19:18:49.545Z,40.80
2022-12-23T19:21:18.871Z,37.80
2022-12-23T19:23:47.071Z,38.20
2022-12-23T19:26:15.621Z,40.90
2022-12-23T19:28:43.835Z,38.00
2022-12-23T19:31:14.738Z,38.20
2022-12-23T19:33:47.488Z,39.70
2022-12-23T19:36:25.284Z,41.60
2022-12-23T19:38:53.592Z,39.50
2022-12-23T19:41:21.813Z,39.80
2022-12-23T19:43:50.121Z,37.90
2022-12-23T19:46:18.595Z,40.60
2022-12-23T19:48:52.408Z,40.70
2022-12-23T19:51:20.713Z,38.90
2022-12-23T19:53:51.373Z,38.50
2022-12-23T19:56:23.262Z,39.80
2022-12-23T19:58:51.429Z,38.20
2022-12-23T20:01:24.173Z,41.60
2022-12-23T20:03:55.257Z,38.70
2022-12-23T20:06:27.881Z,39.80
2022-12-23T20:09:00.817Z,39.40
2022-12-23T20:11:33.252Z,38.60
2022-12-23T20:14:02.545Z,38.00
2022-12-23T20:16:31.679Z,40.00
2022-12-23T20:18:59.979Z,38.20
2022-12-23T20:21:28.298Z,39.60
2022-12-23T20:23:56.692Z,38.70
2022-12-23T20:26:25.037Z,39.80
2022-12-23T20:28:53.526Z,38.90
2022-12-23T20:31:25.065Z,41.10
2022-12-23T20:33:55.171Z,42.50
2022-12-23T20:36:30.257Z,44.60
2022-12-23T20:38:58.912Z,43.30
2022-12-23T20:41:28.900Z,43.50
2022-12-23T20:46:46.471Z,36.30
2022-12-23T20:49:14.607Z,39.00
2022-12-23T20:51:42.795Z,42.40
2022-12-23T20:54:11.054Z,40.60
2022-12-23T20:56:39.162Z,46.80
2022-12-23T20:59:07.311Z,40.20
2022-12-23T21:01:40.802Z,41.90
2022-12-23T21:04:18.122Z,38.50
2022-12-23T21:06:46.297Z,42.50
2022-12-23T21:09:15.727Z,41.20
2022-12-23T21:11:47.128Z,41.20
2022-12-23T21:14:16.175Z,40.30
2022-12-23T21:16:44.964Z,41.90
2022-12-23T21:19:20.313Z,39.30
2022-12-23T21:21:49.652Z,41.70
2022-12-23T21:24:19.171Z,43.40
2022-12-23T21:26:55.661Z,42.50
2022-12-23T21:29:25.870Z,40.40
2022-12-23T21:31:55.207Z,38.90
2022-12-23T21:34:23.816Z,42.70
2022-12-23T21:36:51.983Z,41.80
2022-12-23T21:39:20.116Z,39.90
2022-12-23T21:41:51.031Z,39.70
2022-12-23T21:44:19.275Z,35.80
2022-12-23T21:46:51.029Z,39.80
2022-12-23T21:49:20.411Z,37.10
2022-12-23T21:51:48.596Z,39.40
2022-12-23T21:54:16.732Z,38.10
2022-12-23T21:56:44.966Z,40.20
2022-12-23T21:59:15.014Z,40.00
2022-12-23T22:01:43.474Z,38.30
2022-12-23T22:04:12.435Z,37.60
2022-12-23T22:06:43.904Z,39.80
2022-12-23T22:09:18.731Z,36.40
2022-12-23T22:11:48.203Z,38.10
2022-12-23T22:14:19.700Z,42.30
2022-12-23T22:16:48.077Z,37.70
2022-12-23T22:19:16.920Z,41.10
2022-12-23T22:21:45.107Z,40.10
2022-12-23T22:24:13.297Z,40.30
2022-12-23T22:26:41.959Z,42.10
2022-12-23T22:29:11.378Z,40.30
2022-12-23T22:31:50.664Z,38.60
2022-12-23T22:34:22.224Z,41.50
2022-12-23T22:36:51.086Z,40.20
2022-12-23T22:39:21.912Z,39.40
2022-12-23T22:41:51.838Z,40.20
2022-12-23T22:44:20.961Z,37.90
2022-12-23T22:46:49.865Z,39.10
2022-12-23T22:49:18.571Z,38.10
2022-12-23T22:51:46.767Z,34.90
2022-12-23T22:54:14.992Z,33.90
2022-12-23T22:56:45.852Z,38.90
2022-12-23T22:59:25.654Z,38.90
2022-12-23T23:01:54.512Z,38.30
2022-12-23T23:04:23.054Z,38.60
2022-12-23T23:06:51.156Z,38.00
2022-12-23T23:09:21.559Z,36.20
2022-12-23T23:11:51.222Z,37.70
2022-12-23T23:14:20.310Z,37.10
2022-12-23T23:16:48.634Z,36.00
2022-12-23T23:19:20.370Z,36.00
2022-12-23T23:21:48.949Z,36.30
2022-12-23T23:24:17.638Z,35.30
2022-12-23T23:26:45.888Z,36.70
2022-12-23T23:29:14.403Z,36.70
2022-12-23T23:31:43.939Z,37.20
2022-12-23T23:34:13.779Z,35.60
2022-12-23T23:36:42.187Z,38.60
2022-12-23T23:39:12.733Z,38.60
2022-12-23T23:41:41.858Z,38.90
2022-12-23T23:44:11.780Z,40.20
2022-12-23T23:46:40.407Z,38.30
2022-12-23T23:49:08.659Z,37.90
2022-12-23T23:51:37.225Z,37.70
2022-12-23T23:54:06.981Z,36.70
2022-12-23T23:56:38.533Z,36.60
